sensor_id;sensor_type;location;lat;lon;timestamp;temperature;humidity
23729;DHT22;12045;60.214;24.724;2024-01-11T00:02:25;2.70;99.90
23729;DHT22;12045;60.214;24.724;2024-01-11T00:04:54;3.20;99.90
23729;DHT22;12045;60.214;24.724;2024-01-11T00:07:22;3.00;99.90
23729;DHT22;12045;60.214;24.724;2024-01-11T00:09:51;3.60;99.90
23729;DHT22;12045;60.214;24.724;2024-01-11T00:12:19;3.30;99.90
23729;DHT22;12045;60.214;24.724;2024-01-11T00:14:48;3.00;99.90
23729;DHT22;12045;60.214;24.724;2024-01-11T00:17:16;2.90;99.90
23729;DHT22;12045;60.214;24.724;2024-01-11T00:19:44;2.40;99.90
23729;DHT22;12045;60.214;24.724;2024-01-11T00:22:13;2.60;99.90
23729;DHT22;12045;60.214;24.724;2024-01-11T00:24:41;2.70;99.90
23729;DHT22;12045;60.214;24.724;2024-01-11T00:27:08;3.00;99.90
23729;DHT22;12045;60.214;24.724;2024-01-11T00:29:36;3.20;99.90
23729;DHT22;12045;60.214;24.724;2024-01-11T00:32:05;3.10;99.90
23729;DHT22;12045;60.214;24.724;2024-01-11T00:34:33;3.10;99.90
23729;DHT22;12045;60.214;24.724;2024-01-11T00:37:03;3.00;99.90
23729;DHT22;12045;60.214;24.724;2024-01-11T00:39:33;2.60;99.90
23729;DHT22;12045;60.214;24.724;2024-01-11T00:42:00;3.30;99.90
23729;DHT22;12045;60.214;24.724;2024-01-11T00:44:28;3.00;99.90
23729;DHT22;12045;60.214;24.724;2024-01-11T00:46:55;2.90;99.90
23729;DHT22;12045;60.214;24.724;2024-01-11T00:49:25;3.40;99.90
23729;DHT22;12045;60.214;24.724;2024-01-11T00:51:53;3.40;99.90
23729;DHT22;12045;60.214;24.724;2024-01-11T00:54:22;3.10;99.90
23729;DHT22;12045;60.214;24.724;2024-01-11T00:56:51;3.10;99.90
23729;DHT22;12045;60.214;24.724;2024-01-11T00:59:18;3.00;99.90
23729;DHT22;12045;60.214;24.724;2024-01-11T01:01:49;2.50;99.90
23729;DHT22;12045;60.214;24.724;2024-01-11T01:04:16;2.90;99.90
23729;DHT22;12045;60.214;24.724;2024-01-11T01:06:45;3.20;99.90
23729;DHT22;12045;60.214;24.724;2024-01-11T01:09:13;3.00;99.90
23729;DHT22;12045;60.214;24.724;2024-01-11T01:11:42;2.80;99.90
23729;DHT22;12045;60.214;24.724;2024-01-11T01:14:11;2.90;99.90
23729;DHT22;12045;60.214;24.724;2024-01-11T01:16:42;3.00;99.90
23729;DHT22;12045;60.214;24.724;2024-01-11T01:19:11;3.00;99.90
23729;DHT22;12045;60.214;24.724;2024-01-11T01:21:38;3.10;99.90
23729;DHT22;12045;60.214;24.724;2024-01-11T01:24:07;3.30;99.90
23729;DHT22;12045;60.214;24.724;2024-01-11T01:26:35;3.30;99.90
23729;DHT22;12045;60.214;24.724;2024-01-11T01:29:03;3.60;99.90
23729;DHT22;12045;60.214;24.724;2024-01-11T01:31:34;3.00;99.90
23729;DHT22;12045;60.214;24.724;2024-01-11T01:34:07;3.10;99.90
23729;DHT22;12045;60.214;24.724;2024-01-11T01:36:35;2.90;99.90
23729;DHT22;12045;60.214;24.724;2024-01-11T01:39:04;3.10;99.90
23729;DHT22;12045;60.214;24.724;2024-01-11T01:41:32;3.40;99.90
23729;DHT22;12045;60.214;24.724;2024-01-11T01:44:00;3.10;99.90
23729;DHT22;12045;60.214;24.724;2024-01-11T01:46:28;2.90;99.90
23729;DHT22;12045;60.214;24.724;2024-01-11T01:48:58;2.90;99.90
23729;DHT22;12045;60.214;24.724;2024-01-11T01:51:30;2.80;99.90
23729;DHT22;12045;60.214;24.724;2024-01-11T01:54:00;2.90;99.90
23729;DHT22;12045;60.214;24.724;2024-01-11T01:56:29;3.10;99.90
23729;DHT22;12045;60.214;24.724;2024-01-11T01:58:58;3.00;99.90
23729;DHT22;12045;60.214;24.724;2024-01-11T02:01:27;2.90;99.90
23729;DHT22;12045;60.214;24.724;2024-01-11T02:03:55;2.50;99.90
23729;DHT22;12045;60.214;24.724;2024-01-11T02:06:27;3.00;99.90
23729;DHT22;12045;60.214;24.724;2024-01-11T02:08:59;2.90;99.90
23729;DHT22;12045;60.214;24.724;2024-01-11T02:11:30;2.60;99.90
23729;DHT22;12045;60.214;24.724;2024-01-11T02:13:59;3.20;99.90
23729;DHT22;12045;60.214;24.724;2024-01-11T02:16:27;2.70;99.90
23729;DHT22;12045;60.214;24.724;2024-01-11T02:18:56;3.00;99.90
23729;DHT22;12045;60.214;24.724;2024-01-11T02:21:26;2.70;99.90
23729;DHT22;12045;60.214;24.724;2024-01-11T02:24:06;2.70;99.90
23729;DHT22;12045;60.214;24.724;2024-01-11T02:26:35;2.20;99.90
23729;DHT22;12045;60.214;24.724;2024-01-11T02:29:03;2.60;99.90
23729;DHT22;12045;60.214;24.724;2024-01-11T02:31:32;2.70;99.90
23729;DHT22;12045;60.214;24.724;2024-01-11T02:33:59;2.70;99.90
23729;DHT22;12045;60.214;24.724;2024-01-11T02:36:29;3.20;99.90
23729;DHT22;12045;60.214;24.724;2024-01-11T02:38:58;2.90;99.90
23729;DHT22;12045;60.214;24.724;2024-01-11T02:43:54;2.00;99.90
23729;DHT22;12045;60.214;24.724;2024-01-11T02:46:22;2.60;99.90
23729;DHT22;12045;60.214;24.724;2024-01-11T02:48:51;2.40;99.90
23729;DHT22;12045;60.214;24.724;2024-01-11T02:51:19;3.00;99.90
23729;DHT22;12045;60.214;24.724;2024-01-11T02:53:47;2.70;99.90
23729;DHT22;12045;60.214;24.724;2024-01-11T02:56:16;2.70;99.90
23729;DHT22;12045;60.214;24.724;2024-01-11T02:58:45;2.70;99.90
23729;DHT22;12045;60.214;24.724;2024-01-11T03:01:13;2.00;99.90
23729;DHT22;12045;60.214;24.724;2024-01-11T03:03:41;2.60;99.90
23729;DHT22;12045;60.214;24.724;2024-01-11T03:06:09;2.40;99.90
23729;DHT22;12045;60.214;24.724;2024-01-11T03:08:37;2.80;99.90
23729;DHT22;12045;60.214;24.724;2024-01-11T03:11:08;2.40;99.90
23729;DHT22;12045;60.214;24.724;2024-01-11T03:13:43;2.50;99.90
23729;DHT22;12045;60.214;24.724;2024-01-11T03:16:11;2.80;99.90
23729;DHT22;12045;60.214;24.724;2024-01-11T03:18:40;2.00;99.90
23729;DHT22;12045;60.214;24.724;2024-01-11T03:21:08;2.20;99.90
23729;DHT22;12045;60.214;24.724;2024-01-11T03:23:35;2.30;99.90
23729;DHT22;12045;60.214;24.724;2024-01-11T03:26:03;1.50;99.90
23729;DHT22;12045;60.214;24.724;2024-01-11T03:28:30;2.80;99.90
23729;DHT22;12045;60.214;24.724;2024-01-11T03:30:59;2.20;99.90
23729;DHT22;12045;60.214;24.724;2024-01-11T03:33:28;2.30;99.90
23729;DHT22;12045;60.214;24.724;2024-01-11T03:35:57;2.50;99.90
23729;DHT22;12045;60.214;24.724;2024-01-11T03:38:25;1.70;99.90
23729;DHT22;12045;60.214;24.724;2024-01-11T03:40:53;1.20;99.90
23729;DHT22;12045;60.214;24.724;2024-01-11T03:43:21;2.40;99.90
23729;DHT22;12045;60.214;24.724;2024-01-11T03:45:51;2.50;99.90
23729;DHT22;12045;60.214;24.724;2024-01-11T03:48:19;1.90;99.90
23729;DHT22;12045;60.214;24.724;2024-01-11T03:50:51;1.70;99.90
23729;DHT22;12045;60.214;24.724;2024-01-11T03:53:19;2.00;99.90
23729;DHT22;12045;60.214;24.724;2024-01-11T04:08:09;1.60;99.90
23729;DHT22;12045;60.214;24.724;2024-01-11T04:10:38;1.60;99.90
23729;DHT22;12045;60.214;24.724;2024-01-11T04:13:07;1.50;99.90
23729;DHT22;12045;60.214;24.724;2024-01-11T04:15:35;2.00;99.90
23729;DHT22;12045;60.214;24.724;2024-01-11T04:18:03;1.50;99.90
23729;DHT22;12045;60.214;24.724;2024-01-11T04:20:32;1.40;99.90
23729;DHT22;12045;60.214;24.724;2024-01-11T04:23:00;1.70;99.90
23729;DHT22;12045;60.214;24.724;2024-01-11T04:25:28;1.60;99.90
23729;DHT22;12045;60.214;24.724;2024-01-11T04:27:57;1.60;99.90
23729;DHT22;12045;60.214;24.724;2024-01-11T04:30:25;2.50;99.90
23729;DHT22;12045;60.214;24.724;2024-01-11T04:32:53;1.20;99.90
23729;DHT22;12045;60.214;24.724;2024-01-11T04:35:22;1.50;99.90
23729;DHT22;12045;60.214;24.724;2024-01-11T04:37:52;1.20;99.90
23729;DHT22;12045;60.214;24.724;2024-01-11T04:40:20;1.60;99.90
23729;DHT22;12045;60.214;24.724;2024-01-11T04:42:48;1.10;99.90
23729;DHT22;12045;60.214;24.724;2024-01-11T04:45:16;1.80;99.90
23729;DHT22;12045;60.214;24.724;2024-01-11T04:47:44;1.30;99.90
23729;DHT22;12045;60.214;24.724;2024-01-11T04:50:14;1.30;99.90
23729;DHT22;12045;60.214;24.724;2024-01-11T04:52:41;1.20;99.90
23729;DHT22;12045;60.214;24.724;2024-01-11T04:55:10;1.30;99.90
23729;DHT22;12045;60.214;24.724;2024-01-11T04:57:38;0.50;99.90
23729;DHT22;12045;60.214;24.724;2024-01-11T05:00:06;2.30;99.90
23729;DHT22;12045;60.214;24.724;2024-01-11T05:02:34;0.90;99.90
23729;DHT22;12045;60.214;24.724;2024-01-11T05:05:03;1.20;99.90
23729;DHT22;12045;60.214;24.724;2024-01-11T05:07:32;0.90;99.90
23729;DHT22;12045;60.214;24.724;2024-01-11T05:10:02;1.00;99.90
23729;DHT22;12045;60.214;24.724;2024-01-11T05:12:32;0.80;99.90
23729;DHT22;12045;60.214;24.724;2024-01-11T05:15:01;1.50;99.90
23729;DHT22;12045;60.214;24.724;2024-01-11T05:17:29;0.80;99.90
23729;DHT22;12045;60.214;24.724;2024-01-11T05:19:57;1.30;99.90
23729;DHT22;12045;60.214;24.724;2024-01-11T05:22:25;0.50;99.90
23729;DHT22;12045;60.214;24.724;2024-01-11T05:24:53;2.00;99.90
23729;DHT22;12045;60.214;24.724;2024-01-11T05:27:20;0.50;99.90
23729;DHT22;12045;60.214;24.724;2024-01-11T05:29:49;0.90;99.90
23729;DHT22;12045;60.214;24.724;2024-01-11T05:32:17;1.90;99.90
23729;DHT22;12045;60.214;24.724;2024-01-11T05:34:47;1.10;99.90
23729;DHT22;12045;60.214;24.724;2024-01-11T05:37:16;1.80;99.90
23729;DHT22;12045;60.214;24.724;2024-01-11T05:39:45;1.30;99.90
23729;DHT22;12045;60.214;24.724;2024-01-11T05:42:13;1.00;99.90
23729;DHT22;12045;60.214;24.724;2024-01-11T05:44:41;1.90;99.90
23729;DHT22;12045;60.214;24.724;2024-01-11T05:47:09;1.10;99.90
23729;DHT22;12045;60.214;24.724;2024-01-11T05:49:37;1.20;99.90
23729;DHT22;12045;60.214;24.724;2024-01-11T05:52:05;1.00;99.90
23729;DHT22;12045;60.214;24.724;2024-01-11T05:54:33;1.10;99.90
23729;DHT22;12045;60.214;24.724;2024-01-11T05:57:00;0.70;99.90
23729;DHT22;12045;60.214;24.724;2024-01-11T05:59:28;1.10;99.90
23729;DHT22;12045;60.214;24.724;2024-01-11T06:02:00;0.70;99.90
23729;DHT22;12045;60.214;24.724;2024-01-11T06:04:32;0.30;99.90
23729;DHT22;12045;60.214;24.724;2024-01-11T06:07:00;-0.30;99.90
23729;DHT22;12045;60.214;24.724;2024-01-11T06:09:30;1.00;99.90
23729;DHT22;12045;60.214;24.724;2024-01-11T06:11:58;0.60;99.90
23729;DHT22;12045;60.214;24.724;2024-01-11T06:14:27;-0.10;99.90
23729;DHT22;12045;60.214;24.724;2024-01-11T06:16:56;1.00;99.90
23729;DHT22;12045;60.214;24.724;2024-01-11T06:19:27;0.30;99.90
23729;DHT22;12045;60.214;24.724;2024-01-11T06:21:55;1.20;99.90
23729;DHT22;12045;60.214;24.724;2024-01-11T06:24:23;-0.30;99.90
23729;DHT22;12045;60.214;24.724;2024-01-11T06:26:51;1.60;99.90
23729;DHT22;12045;60.214;24.724;2024-01-11T06:29:21;1.00;99.90
23729;DHT22;12045;60.214;24.724;2024-01-11T06:31:49;0.30;99.90
23729;DHT22;12045;60.214;24.724;2024-01-11T06:34:17;-0.60;99.90
23729;DHT22;12045;60.214;24.724;2024-01-11T06:36:46;-0.10;99.90
23729;DHT22;12045;60.214;24.724;2024-01-11T06:39:14;1.20;99.90
23729;DHT22;12045;60.214;24.724;2024-01-11T06:41:43;-0.30;99.90
23729;DHT22;12045;60.214;24.724;2024-01-11T06:44:10;0.20;99.90
23729;DHT22;12045;60.214;24.724;2024-01-11T06:46:39;-0.70;99.90
23729;DHT22;12045;60.214;24.724;2024-01-11T06:49:09;0.60;99.90
23729;DHT22;12045;60.214;24.724;2024-01-11T06:51:38;0.40;99.90
23729;DHT22;12045;60.214;24.724;2024-01-11T06:54:08;0.40;99.90
23729;DHT22;12045;60.214;24.724;2024-01-11T06:56:37;-0.50;99.90
23729;DHT22;12045;60.214;24.724;2024-01-11T06:59:05;-1.00;99.90
23729;DHT22;12045;60.214;24.724;2024-01-11T07:01:34;1.00;99.90
23729;DHT22;12045;60.214;24.724;2024-01-11T07:04:02;-1.10;99.90
23729;DHT22;12045;60.214;24.724;2024-01-11T07:06:32;-0.70;99.90
23729;DHT22;12045;60.214;24.724;2024-01-11T07:09:00;0.00;99.90
23729;DHT22;12045;60.214;24.724;2024-01-11T07:11:29;-1.20;99.90
23729;DHT22;12045;60.214;24.724;2024-01-11T07:13:56;-1.60;99.90
23729;DHT22;12045;60.214;24.724;2024-01-11T07:16:24;-0.10;99.90
23729;DHT22;12045;60.214;24.724;2024-01-11T07:18:53;-1.10;99.90
23729;DHT22;12045;60.214;24.724;2024-01-11T07:21:22;-1.30;99.90
23729;DHT22;12045;60.214;24.724;2024-01-11T07:28:57;-1.50;99.90
23729;DHT22;12045;60.214;24.724;2024-01-11T07:31:25;-0.90;99.90
23729;DHT22;12045;60.214;24.724;2024-01-11T07:41:22;-1.70;93.70
23729;DHT22;12045;60.214;24.724;2024-01-11T07:43:52;-1.40;93.30
23729;DHT22;12045;60.214;24.724;2024-01-11T07:46:21;-1.20;93.20
23729;DHT22;12045;60.214;24.724;2024-01-11T07:49:06;-1.50;93.80
23729;DHT22;12045;60.214;24.724;2024-01-11T07:51:35;-1.90;94.40
23729;DHT22;12045;60.214;24.724;2024-01-11T07:54:04;-0.20;95.70
23729;DHT22;12045;60.214;24.724;2024-01-11T07:56:33;-2.00;96.80
23729;DHT22;12045;60.214;24.724;2024-01-11T07:59:03;-1.40;97.00
23729;DHT22;12045;60.214;24.724;2024-01-11T08:01:32;-2.20;97.60
23729;DHT22;12045;60.214;24.724;2024-01-11T08:04:03;-2.20;97.20
23729;DHT22;12045;60.214;24.724;2024-01-11T08:06:30;-2.30;95.40
23729;DHT22;12045;60.214;24.724;2024-01-11T08:11:28;-2.40;98.40
23729;DHT22;12045;60.214;24.724;2024-01-11T08:13:58;-2.50;97.90
23729;DHT22;12045;60.214;24.724;2024-01-11T08:16:27;-2.50;99.90
23729;DHT22;12045;60.214;24.724;2024-01-11T08:18:55;-2.60;95.00
23729;DHT22;12045;60.214;24.724;2024-01-11T08:21:27;-2.50;99.90
23729;DHT22;12045;60.214;24.724;2024-01-11T08:23:55;-2.60;99.90
23729;DHT22;12045;60.214;24.724;2024-01-11T08:26:29;-2.80;99.90
23729;DHT22;12045;60.214;24.724;2024-01-11T08:29:05;-2.70;99.90
23729;DHT22;12045;60.214;24.724;2024-01-11T08:31:34;-1.20;99.90
23729;DHT22;12045;60.214;24.724;2024-01-11T08:34:06;-2.70;99.90
23729;DHT22;12045;60.214;24.724;2024-01-11T08:36:35;-2.70;99.90
23729;DHT22;12045;60.214;24.724;2024-01-11T09:51:29;-2.80;93.60
23729;DHT22;12045;60.214;24.724;2024-01-11T09:53:58;-1.70;94.10
23729;DHT22;12045;60.214;24.724;2024-01-11T09:56:27;-2.90;94.30
23729;DHT22;12045;60.214;24.724;2024-01-11T09:58:56;-2.80;94.20
23729;DHT22;12045;60.214;24.724;2024-01-11T10:01:24;-2.80;94.90
23729;DHT22;12045;60.214;24.724;2024-01-11T10:03:54;-2.90;94.40
23729;DHT22;12045;60.214;24.724;2024-01-11T10:06:24;-1.70;94.60
23729;DHT22;12045;60.214;24.724;2024-01-11T10:08:54;-2.30;94.60
23729;DHT22;12045;60.214;24.724;2024-01-11T10:11:24;-2.90;94.40
23729;DHT22;12045;60.214;24.724;2024-01-11T10:13:57;-2.90;95.40
23729;DHT22;12045;60.214;24.724;2024-01-11T10:16:27;-2.10;95.10
23729;DHT22;12045;60.214;24.724;2024-01-11T10:18:56;-2.90;95.10
23729;DHT22;12045;60.214;24.724;2024-01-11T10:21:28;-1.10;96.10
23729;DHT22;12045;60.214;24.724;2024-01-11T10:23:58;-2.70;95.60
23729;DHT22;12045;60.214;24.724;2024-01-11T10:26:28;-2.90;95.80
23729;DHT22;12045;60.214;24.724;2024-01-11T10:28:59;-3.00;95.70
23729;DHT22;12045;60.214;24.724;2024-01-11T10:31:28;-2.70;96.40
23729;DHT22;12045;60.214;24.724;2024-01-11T10:33:57;-1.10;96.80
23729;DHT22;12045;60.214;24.724;2024-01-11T10:36:25;-1.70;96.90
23729;DHT22;12045;60.214;24.724;2024-01-11T10:38:55;-3.10;97.20
23729;DHT22;12045;60.214;24.724;2024-01-11T10:41:26;-2.10;97.20
23729;DHT22;12045;60.214;24.724;2024-01-11T10:43:56;-2.60;96.60
23729;DHT22;12045;60.214;24.724;2024-01-11T10:46:26;-2.30;97.10
23729;DHT22;12045;60.214;24.724;2024-01-11T10:49:04;-3.10;97.90
23729;DHT22;12045;60.214;24.724;2024-01-11T10:51:35;-2.90;97.30
23729;DHT22;12045;60.214;24.724;2024-01-11T10:54:02;-3.10;97.30
23729;DHT22;12045;60.214;24.724;2024-01-11T10:56:30;-3.20;99.30
23729;DHT22;12045;60.214;24.724;2024-01-11T10:59:00;-3.20;98.80
23729;DHT22;12045;60.214;24.724;2024-01-11T11:01:31;-3.20;98.40
23729;DHT22;12045;60.214;24.724;2024-01-11T11:04:01;-3.20;98.80
23729;DHT22;12045;60.214;24.724;2024-01-11T11:06:30;-2.10;99.10
23729;DHT22;12045;60.214;24.724;2024-01-11T11:09:00;-1.20;99.90
23729;DHT22;12045;60.214;24.724;2024-01-11T11:11:30;-3.20;99.80
23729;DHT22;12045;60.214;24.724;2024-01-11T11:14:01;-3.20;99.50
23729;DHT22;12045;60.214;24.724;2024-01-11T11:16:29;-1.50;99.90
23729;DHT22;12045;60.214;24.724;2024-01-11T11:18:59;-3.20;99.90
23729;DHT22;12045;60.214;24.724;2024-01-11T11:21:28;-3.30;99.90
23729;DHT22;12045;60.214;24.724;2024-01-11T11:23:57;-3.30;99.90
23729;DHT22;12045;60.214;24.724;2024-01-11T11:26:26;-4.30;99.90
23729;DHT22;12045;60.214;24.724;2024-01-11T11:28:58;-3.40;99.90
23729;DHT22;12045;60.214;24.724;2024-01-11T11:31:46;-3.40;99.90
23729;DHT22;12045;60.214;24.724;2024-01-11T11:34:19;-3.40;99.90
23729;DHT22;12045;60.214;24.724;2024-01-11T11:36:50;-3.50;99.90
23729;DHT22;12045;60.214;24.724;2024-01-11T11:39:23;-3.40;99.90
23729;DHT22;12045;60.214;24.724;2024-01-11T11:41:52;-3.50;99.90
23729;DHT22;12045;60.214;24.724;2024-01-11T11:44:24;-3.40;99.90
23729;DHT22;12045;60.214;24.724;2024-01-11T11:46:54;-3.10;99.90
23729;DHT22;12045;60.214;24.724;2024-01-11T11:52:33;-3.50;99.90
23729;DHT22;12045;60.214;24.724;2024-01-11T11:55:04;-3.50;99.90
23729;DHT22;12045;60.214;24.724;2024-01-11T11:57:37;-3.20;99.90
23729;DHT22;12045;60.214;24.724;2024-01-11T12:00:05;-3.50;99.90
23729;DHT22;12045;60.214;24.724;2024-01-11T12:02:36;-3.50;99.90
23729;DHT22;12045;60.214;24.724;2024-01-11T12:05:05;-2.50;99.90
23729;DHT22;12045;60.214;24.724;2024-01-11T12:07:34;-3.60;99.90
23729;DHT22;12045;60.214;24.724;2024-01-11T12:10:03;-3.60;99.90
23729;DHT22;12045;60.214;24.724;2024-01-11T12:12:34;-3.60;99.90
23729;DHT22;12045;60.214;24.724;2024-01-11T12:15:06;-3.60;99.90
23729;DHT22;12045;60.214;24.724;2024-01-11T12:17:37;-3.60;99.90
23729;DHT22;12045;60.214;24.724;2024-01-11T12:20:07;-3.70;99.90
23729;DHT22;12045;60.214;24.724;2024-01-11T12:22:34;-3.70;99.90
23729;DHT22;12045;60.214;24.724;2024-01-11T12:25:02;-2.10;99.90
23729;DHT22;12045;60.214;24.724;2024-01-11T12:27:34;-3.80;99.90
23729;DHT22;12045;60.214;24.724;2024-01-11T12:30:02;-1.60;99.90
23729;DHT22;12045;60.214;24.724;2024-01-11T12:32:32;-3.90;99.90
23729;DHT22;12045;60.214;24.724;2024-01-11T12:35:03;-3.90;99.90
23729;DHT22;12045;60.214;24.724;2024-01-11T12:37:32;-3.90;99.90
23729;DHT22;12045;60.214;24.724;2024-01-11T12:40:00;-3.90;99.90
23729;DHT22;12045;60.214;24.724;2024-01-11T12:42:30;-4.00;99.90
23729;DHT22;12045;60.214;24.724;2024-01-11T12:44:57;-4.00;99.90
23729;DHT22;12045;60.214;24.724;2024-01-11T12:47:26;-4.00;99.90
23729;DHT22;12045;60.214;24.724;2024-01-11T12:49:55;-3.50;99.90
23729;DHT22;12045;60.214;24.724;2024-01-11T12:52:24;-4.00;99.90
23729;DHT22;12045;60.214;24.724;2024-01-11T12:54:55;-4.00;99.90
23729;DHT22;12045;60.214;24.724;2024-01-11T12:57:24;-4.10;99.90
23729;DHT22;12045;60.214;24.724;2024-01-11T12:59:53;-3.60;99.90
23729;DHT22;12045;60.214;24.724;2024-01-11T13:02:24;-4.20;99.90
23729;DHT22;12045;60.214;24.724;2024-01-11T13:04:53;-4.20;99.90
23729;DHT22;12045;60.214;24.724;2024-01-11T13:19:48;-4.30;99.90
23729;DHT22;12045;60.214;24.724;2024-01-11T13:24:45;-4.40;99.90
23729;DHT22;12045;60.214;24.724;2024-01-11T13:27:14;-4.40;99.90
23729;DHT22;12045;60.214;24.724;2024-01-11T13:29:45;-4.50;99.90
23729;DHT22;12045;60.214;24.724;2024-01-11T13:32:12;-4.50;99.90
23729;DHT22;12045;60.214;24.724;2024-01-11T13:34:42;-4.60;99.90
23729;DHT22;12045;60.214;24.724;2024-01-11T13:37:10;-4.60;99.90
23729;DHT22;12045;60.214;24.724;2024-01-11T13:39:39;-4.60;99.90
23729;DHT22;12045;60.214;24.724;2024-01-11T13:42:07;-4.50;99.90
23729;DHT22;12045;60.214;24.724;2024-01-11T13:44:37;-4.60;99.90
23729;DHT22;12045;60.214;24.724;2024-01-11T13:47:05;-4.70;99.90
23729;DHT22;12045;60.214;24.724;2024-01-11T13:49:33;-4.70;99.90
23729;DHT22;12045;60.214;24.724;2024-01-11T13:52:03;-4.80;99.90
23729;DHT22;12045;60.214;24.724;2024-01-11T13:54:34;-4.80;99.90
23729;DHT22;12045;60.214;24.724;2024-01-11T13:57:02;-4.80;99.90
23729;DHT22;12045;60.214;24.724;2024-01-11T13:59:31;-4.80;99.90
23729;DHT22;12045;60.214;24.724;2024-01-11T14:02:01;-4.80;99.90
23729;DHT22;12045;60.214;24.724;2024-01-11T14:04:30;-4.90;99.90
23729;DHT22;12045;60.214;24.724;2024-01-11T14:07:00;-4.90;99.90
23729;DHT22;12045;60.214;24.724;2024-01-11T14:09:29;-5.00;99.90
23729;DHT22;12045;60.214;24.724;2024-01-11T14:11:57;-5.00;99.90
23729;DHT22;12045;60.214;24.724;2024-01-11T14:14:25;-5.00;99.90
23729;DHT22;12045;60.214;24.724;2024-01-11T14:16:55;-5.10;99.90
23729;DHT22;12045;60.214;24.724;2024-01-11T14:19:24;-5.10;99.90
23729;DHT22;12045;60.214;24.724;2024-01-11T14:21:51;-5.20;99.90
23729;DHT22;12045;60.214;24.724;2024-01-11T14:24:19;-5.20;99.90
23729;DHT22;12045;60.214;24.724;2024-01-11T14:26:58;-5.00;99.90
23729;DHT22;12045;60.214;24.724;2024-01-11T14:29:28;-5.20;99.90
23729;DHT22;12045;60.214;24.724;2024-01-11T14:31:57;-5.30;99.90
23729;DHT22;12045;60.214;24.724;2024-01-11T14:34:25;-5.30;99.90
23729;DHT22;12045;60.214;24.724;2024-01-11T14:36:55;-5.30;99.90
23729;DHT22;12045;60.214;24.724;2024-01-11T14:39:24;-5.30;99.90
23729;DHT22;12045;60.214;24.724;2024-01-11T14:41:53;-5.30;99.90
23729;DHT22;12045;60.214;24.724;2024-01-11T14:44:21;-5.30;99.90
23729;DHT22;12045;60.214;24.724;2024-01-11T14:46:49;-5.40;99.90
23729;DHT22;12045;60.214;24.724;2024-01-11T14:49:17;-5.40;99.90
23729;DHT22;12045;60.214;24.724;2024-01-11T14:51:46;-5.50;99.90
23729;DHT22;12045;60.214;24.724;2024-01-11T14:54:14;-5.50;99.90
23729;DHT22;12045;60.214;24.724;2024-01-11T14:56:43;-5.50;99.90
23729;DHT22;12045;60.214;24.724;2024-01-11T14:59:12;-5.50;99.90
23729;DHT22;12045;60.214;24.724;2024-01-11T15:01:39;-5.60;99.90
23729;DHT22;12045;60.214;24.724;2024-01-11T15:04:08;-5.60;99.90
23729;DHT22;12045;60.214;24.724;2024-01-11T15:06:36;-5.60;99.90
23729;DHT22;12045;60.214;24.724;2024-01-11T15:09:07;-5.60;99.90
23729;DHT22;12045;60.214;24.724;2024-01-11T15:11:39;-5.70;99.90
23729;DHT22;12045;60.214;24.724;2024-01-11T15:14:07;-5.70;99.90
23729;DHT22;12045;60.214;24.724;2024-01-11T15:16:38;-5.70;99.90
23729;DHT22;12045;60.214;24.724;2024-01-11T15:19:07;-5.70;99.90
23729;DHT22;12045;60.214;24.724;2024-01-11T15:21:38;-4.70;99.90
23729;DHT22;12045;60.214;24.724;2024-01-11T15:24:14;-5.80;99.90
23729;DHT22;12045;60.214;24.724;2024-01-11T15:26:45;-5.50;99.90
23729;DHT22;12045;60.214;24.724;2024-01-11T15:29:14;-5.80;99.90
23729;DHT22;12045;60.214;24.724;2024-01-11T15:31:43;-5.90;99.90
23729;DHT22;12045;60.214;24.724;2024-01-11T15:34:14;-5.90;99.90
23729;DHT22;12045;60.214;24.724;2024-01-11T15:36:44;-5.90;99.90
23729;DHT22;12045;60.214;24.724;2024-01-11T15:39:14;-5.90;99.90
23729;DHT22;12045;60.214;24.724;2024-01-11T15:41:54;-6.00;99.90
23729;DHT22;12045;60.214;24.724;2024-01-11T15:44:28;-6.00;99.90
23729;DHT22;12045;60.214;24.724;2024-01-11T15:46:56;-5.50;99.90
23729;DHT22;12045;60.214;24.724;2024-01-11T15:49:24;-6.00;99.90
23729;DHT22;12045;60.214;24.724;2024-01-11T15:51:52;-6.10;99.90
23729;DHT22;12045;60.214;24.724;2024-01-11T15:54:21;-6.10;99.90
23729;DHT22;12045;60.214;24.724;2024-01-11T15:56:49;-6.10;99.90
23729;DHT22;12045;60.214;24.724;2024-01-11T15:59:18;-6.10;99.90
23729;DHT22;12045;60.214;24.724;2024-01-11T16:01:48;-5.10;99.90
23729;DHT22;12045;60.214;24.724;2024-01-11T16:04:30;-6.10;99.90
23729;DHT22;12045;60.214;24.724;2024-01-11T16:06:58;-6.10;99.90
23729;DHT22;12045;60.214;24.724;2024-01-11T16:09:26;-6.20;99.90
23729;DHT22;12045;60.214;24.724;2024-01-11T16:11:57;-6.20;99.90
23729;DHT22;12045;60.214;24.724;2024-01-11T16:14:31;-6.30;99.90
23729;DHT22;12045;60.214;24.724;2024-01-11T16:17:00;-6.40;99.90
23729;DHT22;12045;60.214;24.724;2024-01-11T16:19:28;-6.40;99.90
23729;DHT22;12045;60.214;24.724;2024-01-11T16:21:59;-6.40;99.90
23729;DHT22;12045;60.214;24.724;2024-01-11T16:24:26;-6.40;99.90
23729;DHT22;12045;60.214;24.724;2024-01-11T16:26:55;-6.50;99.90
23729;DHT22;12045;60.214;24.724;2024-01-11T16:29:25;-6.50;99.90
23729;DHT22;12045;60.214;24.724;2024-01-11T16:31:53;-6.40;99.90
23729;DHT22;12045;60.214;24.724;2024-01-11T16:34:23;-6.50;99.90
23729;DHT22;12045;60.214;24.724;2024-01-11T16:36:52;-6.50;99.90
23729;DHT22;12045;60.214;24.724;2024-01-11T16:39:21;-6.50;99.90
23729;DHT22;12045;60.214;24.724;2024-01-11T16:41:49;-5.80;99.90
23729;DHT22;12045;60.214;24.724;2024-01-11T16:44:18;-6.60;99.90
23729;DHT22;12045;60.214;24.724;2024-01-11T16:46:46;-6.60;99.90
23729;DHT22;12045;60.214;24.724;2024-01-11T16:49:14;-6.60;99.90
23729;DHT22;12045;60.214;24.724;2024-01-11T16:51:43;-6.00;99.90
23729;DHT22;12045;60.214;24.724;2024-01-11T16:54:17;-6.70;99.90
23729;DHT22;12045;60.214;24.724;2024-01-11T16:56:46;-6.70;99.90
23729;DHT22;12045;60.214;24.724;2024-01-11T16:59:14;-6.70;99.90
23729;DHT22;12045;60.214;24.724;2024-01-11T17:01:44;-6.70;99.90
23729;DHT22;12045;60.214;24.724;2024-01-11T17:04:11;-6.70;99.90
23729;DHT22;12045;60.214;24.724;2024-01-11T17:06:40;-6.70;99.90
23729;DHT22;12045;60.214;24.724;2024-01-11T17:09:07;-6.80;99.90
23729;DHT22;12045;60.214;24.724;2024-01-11T17:11:38;-6.80;99.90
23729;DHT22;12045;60.214;24.724;2024-01-11T17:14:08;-6.90;99.90
23729;DHT22;12045;60.214;24.724;2024-01-11T17:16:37;-6.90;99.90
23729;DHT22;12045;60.214;24.724;2024-01-11T17:19:09;-6.90;99.90
23729;DHT22;12045;60.214;24.724;2024-01-11T17:21:37;-6.90;99.90
23729;DHT22;12045;60.214;24.724;2024-01-11T17:24:05;-6.90;99.90
23729;DHT22;12045;60.214;24.724;2024-01-11T17:26:37;-6.90;99.90
23729;DHT22;12045;60.214;24.724;2024-01-11T17:29:06;-6.30;99.90
23729;DHT22;12045;60.214;24.724;2024-01-11T17:31:37;-7.00;99.90
23729;DHT22;12045;60.214;24.724;2024-01-11T17:34:12;-7.00;99.90
23729;DHT22;12045;60.214;24.724;2024-01-11T17:36:41;-7.00;99.90